Sturgeon Bay, WI

7:15 PM CDT on April 21, 2015 (GMT -0500)
Manitowoc County | | Change Station
CLOSE
Current Station
Airport
Location: Manitowoc,
Elevation: 650 ft
Nearby Weather Stations

Elev 650 ft 44.13 °N, 87.68 °W | Updated 19 minutes ago

Rain
Rain
37 °F
Feels Like 27 °F
N
18
Wind Variable Wind from West
Gusts 34 mph

Today
High -- | Low -- °F
--% Chance of Precip.
Yesterday
High -- | Low -- °F
Precip. -- in
5:55 AM 7:42 PM
Waxing Crescent, 13% visible
Pressure 29.61 in
Visibility 9.0 miles
Clouds Few 2300 ft
Mostly Cloudy 3800 ft
Overcast 4600 ft
Windchill 27 °F
Dew Point 33 °F
Humidity 86%
Rainfall 0.01 in
Snow Depth Not available.
UV 0 out of 12
Pollen 8.10 out of 12
Air Quality Not available.
Flu Activity Local Activity
METAR KMTW 212356Z AUTO 27016G30KT 9SM -RA FEW023 BKN038 OVC046 03/01 A2954 RMK AO2 PK WND 27030/2352 RAB31 SLP027 P0001 6//// T00280006 10072 20028

More Conditions Fewer Conditions

Pressure 29.61 in
Visibility 9.0 miles
Clouds Few 2300 ft
Mostly Cloudy 3800 ft
Overcast 4600 ft
Windchill 27 °F
Dew Point 33 °F
Humidity 86%
Rainfall 0.01 in
Snow Depth Not available.
UV 0 out of 12
Pollen 8.10 out of 12
Air Quality Not available.
Flu Activity Local Activity
METAR KMTW 212356Z AUTO 27016G30KT 9SM -RA FEW023 BKN038 OVC046 03/01 A2954 RMK AO2 PK WND 27030/2352 RAB31 SLP027 P0001 6//// T00280006 10072 20028

More Conditions Fewer Conditions

10-Day Weather Forecast

Almanac

Astronomy

Apr. 21, 2015 Rise Set
Actual Time
Civil Twilight
Nautical Twilight
Astronomical Twilight
Moon
Length of Visible Light
Length of Day
Tomorrow will be .
, % of the Moon is Illuminated

Today's Extremes

State Highs State Lows

Community

WunderPhotos

Upload Photos

1,815,586 photos uploaded!

WunderBlogs® & News

Nearby

Air Quality

  Air Quality AQ Index Pollutant
Not available.

Snow Depth

Station Depth Elevation

Earthquake Activity

City Distance Mag. Time & Date
Minimum magnitude displayed is 2.5.

Coastal Water Temperatures

Place Temperature

Stations

Nearby Weather Stations

Station Location Temp. Windchill Dew Point Humidity Wind Precip. Elev Updated Type